San Ramon de la Nueva Oran, Argentina
Current Conditions -  °F | °C
As of 1:00 PM on Sunday 23 Nov 2014 (Local Time) from SLYA Reporting Station
Overcast Overcast  
Wind Chill: 26°   Ceiling: 2700
Heat Index: 27°   Visibility: 6mi
Dew Point: 20°   Wind: 9mph
Humidity: 69%   Direction: 50°NE
Pressure: 29.97"   Gusts: NA
Location:  23.13°S, 64.33°W
Report Text: SLYA 231600Z 05008KT 9999 BKN027 OVC070 26/20 Q1015
Loading
Personal Weather Stations






























Interactive Weather Map New forecast layout! Learn more

10-Day Weather Forecast

Advertisements
Track Severe Weather on mobile